Terminal Aerodrome Forecast
Issued by NWS

Home | Current Version | Previous Version | Graphics & Text | Print | Product List | Glossary On
Versions: 1 2 3 4 5 6 7 8 9 10 11 12 13 14 15 16 17 18
000
FTUS43 KICT 211020 AAA
TAFRSL
TAF AMD
KRSL 211020Z 2110/2206 20017G22KT P6SM SCT150 OVC300
     FM211500 21017G22KT P6SM OVC130
     FM212100 20022G26KT P6SM VCTS OVC080CB
     FM220000 21013KT P6SM SCT100 BKN250=

USA.gov is the U.S. government's official web portal to all federal, state and local government web resources and services.